10.47C
ясно
ясно
Дата и времяТемператураДавление, мм рт.ст.Влажность, %Осадки
МинимумМаксимум
20.05.2024 05:0010.44C10.47C76372ясно
20.05.2024 08:0010.67C11.06C76372ясно
20.05.2024 11:0014.74C16.88C76360ясно
20.05.2024 14:0021.42C21.42C76239ясно
20.05.2024 17:0021.41C21.41C76240переменная облачность
20.05.2024 20:0020.42C20.42C76244облачно с прояснениями
20.05.2024 23:0017.85C17.85C76254облачно с прояснениями
21.05.2024 02:0016.31C16.31C76363пасмурно
21.05.2024 05:0014.07C14.07C76368пасмурно
21.05.2024 08:0014.02C14.02C76466облачно с прояснениями
21.05.2024 11:0018.73C18.73C76455переменная облачность
21.05.2024 14:0022.13C22.13C76442облачно с прояснениями
21.05.2024 17:0023.07C23.07C76337облачно с прояснениями
21.05.2024 20:0020.7C20.7C76355пасмурно
21.05.2024 23:0017.22C17.22C76481небольшой дождь
22.05.2024 02:0015.4C15.4C76488небольшой дождь
22.05.2024 05:0013.93C13.93C76593небольшой дождь
22.05.2024 08:0013.03C13.03C76580пасмурно
22.05.2024 11:0016.57C16.57C76652пасмурно
22.05.2024 14:0020.79C20.79C76631переменная облачность
22.05.2024 17:0021.64C21.64C76629небольшая облачность
22.05.2024 20:0020.02C20.02C76638переменная облачность
22.05.2024 23:0015.01C15.01C76856переменная облачность
23.05.2024 02:0012.35C12.35C76957ясно
23.05.2024 05:0010.08C10.08C77156ясно
23.05.2024 08:009.72C9.72C77246облачно с прояснениями
23.05.2024 11:0013.51C13.51C77331переменная облачность
23.05.2024 14:0016.42C16.42C77226ясно
23.05.2024 17:0017.83C17.83C77124ясно
23.05.2024 20:0017.18C17.18C77126ясно
23.05.2024 23:0013.25C13.25C77341ясно
24.05.2024 02:0010.75C10.75C77447небольшая облачность
24.05.2024 05:009.23C9.23C77450переменная облачность
24.05.2024 08:0010.1C10.1C77449ясно
24.05.2024 11:0015.18C15.18C77537ясно
24.05.2024 14:0019.46C19.46C77428ясно
24.05.2024 17:0021.29C21.29C77426ясно
24.05.2024 20:0020.74C20.74C77430переменная облачность
24.05.2024 23:0016.66C16.66C77445переменная облачность
25.05.2024 02:0013.95C13.95C77459ясно
Дата и время наблюдения: 20.05.2024 04:45:54